Time;durP1;ratioP1;P1;durP2;ratioP2;P2;SDS_P1;SDS_P2;PMS_P1;PMS_P2;Temp;Humidity;BMP_temperature;BMP_pressure;BME280_temperature;BME280_humidity;BME280_pressure;Samples;Min_cycle;Max_cycle;Signal;HPM_P1;HPM_P2
2021/12/22 00:00:32;;;;;;;54.50;23.95;;;-4.50;99.90;;;;;;5068943;28;20658;-37
2021/12/22 00:02:58;;;;;;;61.30;26.65;;;-4.50;99.90;;;;;;5064868;28;20070;-38
2021/12/22 00:05:27;;;;;;;52.17;23.83;;;-4.50;99.90;;;;;;5069235;28;20683;-38
2021/12/22 00:07:54;;;;;;;59.13;25.42;;;-4.60;99.90;;;;;;5069271;28;20496;-38
2021/12/22 00:10:31;;;;;;;53.35;24.73;;;-4.60;99.90;;;;;;5070233;28;20041;-38
2021/12/22 00:12:57;;;;;;;60.75;24.55;;;-4.60;99.90;;;;;;5069077;28;20040;-38
2021/12/22 00:15:22;;;;;;;59.15;26.77;;;-4.70;99.90;;;;;;5069227;28;20051;-38
2021/12/22 00:17:48;;;;;;;53.40;24.00;;;-4.70;99.90;;;;;;5068656;28;20048;-38
2021/12/22 00:20:15;;;;;;;51.95;22.83;;;-4.80;99.90;;;;;;5068697;28;20041;-38
2021/12/22 00:22:41;;;;;;;54.67;25.08;;;-4.40;99.90;;;;;;5067591;28;20134;-37
2021/12/22 00:25:07;;;;;;;55.72;23.95;;;-4.80;99.90;;;;;;5069120;28;20123;-38
2021/12/22 00:27:33;;;;;;;51.40;24.33;;;-4.80;99.90;;;;;;5068976;28;20052;-41
2021/12/22 00:29:59;;;;;;;50.75;23.85;;;-4.20;99.90;;;;;;5069330;28;20071;-38
2021/12/22 00:32:27;;;;;;;51.97;23.52;;;-4.90;99.90;;;;;;5069043;28;20040;-38
2021/12/22 00:34:55;;;;;;;61.28;24.98;;;-4.90;99.90;;;;;;5068496;28;20048;-37
2021/12/22 00:37:26;;;;;;;56.00;24.30;;;-4.90;99.90;;;;;;5065929;28;20547;-38
2021/12/22 00:39:53;;;;;;;56.60;25.77;;;-4.90;99.90;;;;;;5069231;28;20041;-38
2021/12/22 00:42:19;;;;;;;59.88;25.40;;;-4.80;99.90;;;;;;5068393;28;20037;-38
2021/12/22 00:44:49;;;;;;;47.30;24.08;;;-4.40;99.90;;;;;;5067927;28;20037;-38
2021/12/22 00:47:16;;;;;;;60.03;24.23;;;-4.80;99.90;;;;;;5068593;28;20032;-37
2021/12/22 00:49:42;;;;;;;51.63;23.83;;;-4.90;99.90;;;;;;5068618;28;20044;-37
2021/12/22 00:52:08;;;;;;;51.47;25.40;;;-4.90;99.90;;;;;;5069104;28;20036;-37
2021/12/22 00:54:35;;;;;;;52.60;23.63;;;-5.00;99.90;;;;;;5068760;28;20048;-38
2021/12/22 00:57:15;;;;;;;53.70;24.15;;;-5.00;99.90;;;;;;5068990;28;20410;-38
2021/12/22 00:59:41;;;;;;;50.78;25.02;;;-5.00;99.90;;;;;;5068812;28;20110;-38
2021/12/22 01:02:10;;;;;;;53.30;22.77;;;-5.10;99.90;;;;;;5069134;28;20473;-38
2021/12/22 01:04:36;;;;;;;49.00;23.70;;;-5.10;99.90;;;;;;5068938;28;20056;-37
2021/12/22 01:07:03;;;;;;;50.15;22.80;;;-5.10;99.90;;;;;;5068926;28;20436;-38
2021/12/22 01:09:29;;;;;;;48.78;23.17;;;-5.10;99.90;;;;;;5069157;28;20070;-38
2021/12/22 01:11:55;;;;;;;51.72;23.63;;;-5.10;99.90;;;;;;5068904;28;20386;-38
2021/12/22 01:14:21;;;;;;;51.38;23.52;;;-5.10;99.90;;;;;;5069310;28;20049;-37
2021/12/22 01:16:50;;;;;;;53.20;25.48;;;-5.00;99.90;;;;;;5069276;28;20139;-38
2021/12/22 01:19:22;;;;;;;51.45;23.10;;;-5.00;99.90;;;;;;5070312;28;20044;-38
2021/12/22 01:22:00;;;;;;;46.63;22.30;;;-5.10;99.90;;;;;;5069518;28;20059;-37
2021/12/22 01:24:32;;;;;;;46.33;23.02;;;-5.10;99.90;;;;;;5069572;28;20059;-38
2021/12/22 01:27:05;;;;;;;47.60;22.15;;;-5.10;99.90;;;;;;5068836;28;20080;-38
2021/12/22 01:29:51;;;;;;;44.08;20.42;;;-5.10;99.90;;;;;;5068856;28;20063;-37
2021/12/22 01:32:27;;;;;;;41.92;21.02;;;-5.10;99.90;;;;;;5069595;28;20048;-38
2021/12/22 01:34:59;;;;;;;44.08;20.85;;;-5.00;99.90;;;;;;5069243;28;20048;-38
2021/12/22 01:37:25;;;;;;;43.90;22.02;;;-5.00;99.90;;;;;;5069128;28;20383;-38
2021/12/22 01:39:50;;;;;;;43.55;20.33;;;-5.00;99.90;;;;;;5068852;28;20060;-37
2021/12/22 01:42:16;;;;;;;41.45;19.75;;;-5.10;99.90;;;;;;5069594;28;20044;-38
2021/12/22 01:50:31;;;;;;;37.75;18.17;;;-5.30;99.90;;;;;;5068645;28;20122;-38
2021/12/22 01:52:58;;;;;;;40.72;18.63;;;-5.30;99.90;;;;;;5068433;28;20032;-38
2021/12/22 01:55:34;;;;;;;35.70;18.27;;;-5.30;99.90;;;;;;5069164;28;20507;-38
2021/12/22 01:58:01;;;;;;;37.47;16.90;;;-5.40;99.90;;;;;;5072381;28;20482;-38
2021/12/22 02:00:28;;;;;;;40.33;18.45;;;-5.50;99.90;;;;;;5071664;28;20048;-37
2021/12/22 02:02:56;;;;;;;32.30;17.00;;;-5.50;99.90;;;;;;5071285;28;20441;-37
2021/12/22 02:05:23;;;;;;;31.30;16.63;;;-5.50;99.90;;;;;;5072358;28;20040;-38
2021/12/22 02:07:49;;;;;;;44.00;19.40;;;-5.50;99.90;;;;;;5072556;28;20060;-38
2021/12/22 02:10:36;;;;;;;37.80;17.27;;;-5.50;99.90;;;;;;5072619;28;20045;-38
2021/12/22 02:13:04;;;;;;;38.53;16.48;;;-5.50;99.90;;;;;;5073300;28;20044;-38
2021/12/22 02:15:33;;;;;;;32.58;15.43;;;-5.60;99.90;;;;;;5072690;28;20063;-38
2021/12/22 02:18:03;;;;;;;37.55;15.80;;;-5.60;99.90;;;;;;5070651;28;20048;-38
2021/12/22 02:20:29;;;;;;;35.03;16.38;;;-5.70;99.90;;;;;;5072780;28;20036;-37
2021/12/22 02:23:03;;;;;;;34.67;18.02;;;-5.70;99.90;;;;;;5072501;28;20032;-37
2021/12/22 02:25:35;;;;;;;40.95;19.08;;;-5.80;99.90;;;;;;5072822;28;20051;-37
2021/12/22 02:28:03;;;;;;;36.97;17.58;;;-5.90;99.90;;;;;;5072654;28;20508;-38
2021/12/22 02:30:44;;;;;;;36.35;17.48;;;-5.90;99.90;;;;;;5072592;28;20367;-37
2021/12/22 02:33:24;;;;;;;34.97;16.90;;;-5.90;99.90;;;;;;5072065;28;20040;-38
2021/12/22 02:36:19;;;;;;;39.13;15.93;;;-5.90;99.90;;;;;;5072773;28;20076;-38
2021/12/22 02:38:59;;;;;;;39.40;17.42;;;-5.90;99.90;;;;;;5072730;28;20157;-38
2021/12/22 02:41:40;;;;;;;40.03;16.27;;;-6.00;99.90;;;;;;5072812;28;20055;-38
2021/12/22 02:44:18;;;;;;;34.75;16.60;;;-6.00;99.90;;;;;;5069994;28;20045;-38
2021/12/22 02:46:46;;;;;;;35.08;16.80;;;-5.90;99.90;;;;;;5070094;28;20398;-38
2021/12/22 02:49:12;;;;;;;32.88;17.10;;;-5.90;99.90;;;;;;5071725;28;20078;-37
2021/12/22 02:51:38;;;;;;;36.40;17.52;;;-5.90;99.90;;;;;;5071823;28;20052;-38
2021/12/22 02:54:28;;;;;;;35.03;17.52;;;-5.90;99.90;;;;;;5071988;28;20058;-37
2021/12/22 02:56:57;;;;;;;31.63;16.80;;;-5.90;99.90;;;;;;5070941;28;20056;-37
2021/12/22 03:02:11;;;;;;;31.92;16.90;;;-5.90;99.90;;;;;;5071601;28;20048;-37
2021/12/22 03:04:51;;;;;;;32.80;16.25;;;-5.90;99.90;;;;;;5071810;28;20045;-38
2021/12/22 03:07:18;;;;;;;31.38;16.20;;;-6.00;99.90;;;;;;5071588;28;20071;-37
2021/12/22 03:09:45;;;;;;;31.25;16.55;;;-6.00;99.90;;;;;;5070654;28;20043;-38
2021/12/22 03:12:13;;;;;;;32.20;16.48;;;-6.10;99.90;;;;;;5070757;28;20059;-37
2021/12/22 03:14:39;;;;;;;34.35;17.13;;;-6.20;99.90;;;;;;5069618;28;20131;-38
2021/12/22 03:17:06;;;;;;;33.42;17.13;;;-6.20;99.90;;;;;;5070493;28;20447;-38
2021/12/22 03:19:37;;;;;;;34.22;17.42;;;-6.20;99.90;;;;;;5071286;28;20045;-37
2021/12/22 03:22:07;;;;;;;35.97;17.75;;;-6.30;99.90;;;;;;5070618;28;20076;-37
2021/12/22 03:24:34;;;;;;;37.08;18.67;;;-6.30;99.90;;;;;;5070935;28;20040;-37
2021/12/22 03:27:03;;;;;;;36.90;16.88;;;-6.30;99.90;;;;;;5070968;28;20484;-38
2021/12/22 03:29:30;;;;;;;32.33;17.38;;;-6.30;99.90;;;;;;5070147;28;20102;-37
2021/12/22 03:31:56;;;;;;;35.45;18.73;;;-6.30;99.90;;;;;;5070557;28;20083;-37
2021/12/22 03:34:22;;;;;;;39.42;18.35;;;-6.20;99.90;;;;;;5070182;28;20068;-37
2021/12/22 03:36:48;;;;;;;38.58;17.50;;;-6.20;99.90;;;;;;5070324;28;20044;-37
2021/12/22 03:39:14;;;;;;;35.75;19.65;;;-6.20;99.90;;;;;;5068750;28;20079;-38
2021/12/22 03:41:41;;;;;;;39.58;18.67;;;-6.20;99.90;;;;;;5070309;28;20040;-38
2021/12/22 03:44:08;;;;;;;36.28;17.73;;;-6.20;99.90;;;;;;5070056;28;20396;-38
2021/12/22 03:46:34;;;;;;;36.30;18.08;;;-6.20;99.90;;;;;;5069885;28;20462;-37
2021/12/22 03:49:00;;;;;;;38.13;18.25;;;-6.20;99.90;;;;;;5069927;28;20044;-38
2021/12/22 03:51:26;;;;;;;41.63;19.25;;;-6.20;99.90;;;;;;5070027;28;20280;-38
2021/12/22 03:53:52;;;;;;;40.33;19.33;;;-6.20;99.90;;;;;;5069780;28;20048;-37
2021/12/22 03:56:18;;;;;;;37.47;18.38;;;-6.20;99.90;;;;;;5070017;28;20184;-37
2021/12/22 03:58:44;;;;;;;38.67;17.95;;;-6.20;99.90;;;;;;5069792;28;20075;-38
2021/12/22 04:01:10;;;;;;;36.10;18.55;;;-6.20;99.90;;;;;;5068074;28;20040;-38
2021/12/22 04:03:37;;;;;;;37.58;17.33;;;-6.00;99.90;;;;;;5069549;28;20072;-38
2021/12/22 04:06:04;;;;;;;35.10;18.10;;;-6.00;99.90;;;;;;5070101;28;20198;-38
2021/12/22 04:08:31;;;;;;;39.20;18.67;;;-6.40;99.90;;;;;;5069935;28;20048;-38
2021/12/22 04:10:56;;;;;;;38.70;18.23;;;-6.40;99.90;;;;;;5070253;28;20356;-37
2021/12/22 04:13:22;;;;;;;44.45;19.30;;;-6.40;99.90;;;;;;5069493;28;20069;-37
2021/12/22 04:15:49;;;;;;;38.70;18.50;;;-6.40;99.90;;;;;;5069681;28;20059;-37
2021/12/22 04:18:15;;;;;;;36.33;18.33;;;-6.50;99.90;;;;;;5069782;28;20045;-37
2021/12/22 04:20:41;;;;;;;35.67;18.10;;;-6.50;99.90;;;;;;5069904;28;20189;-37
2021/12/22 04:23:07;;;;;;;41.42;18.48;;;-6.50;99.90;;;;;;5069945;28;20561;-37
2021/12/22 04:25:35;;;;;;;39.25;19.05;;;-6.50;99.90;;;;;;5069659;28;20041;-37
2021/12/22 04:28:07;;;;;;;40.90;18.08;;;-6.40;99.90;;;;;;5069404;28;20127;-38
2021/12/22 04:30:33;;;;;;;;;;;-6.50;99.90;;;;;;5069208;28;20105;-37
2021/12/22 04:33:00;;;;;;;37.38;18.10;;;-6.50;99.90;;;;;;5069166;28;19931;-37
2021/12/22 04:35:26;;;;;;;38.75;17.52;;;-6.50;99.90;;;;;;5069409;28;20052;-37
2021/12/22 04:37:51;;;;;;;40.45;19.30;;;-6.50;99.90;;;;;;5069235;28;20040;-37
2021/12/22 04:40:17;;;;;;;38.10;17.45;;;-6.50;99.90;;;;;;5069038;28;20123;-37
2021/12/22 04:42:44;;;;;;;47.00;21.92;;;-6.60;99.90;;;;;;5068713;28;20036;-37
2021/12/22 04:45:12;;;;;;;37.05;19.48;;;-6.60;99.90;;;;;;5069116;28;20074;-37
2021/12/22 04:47:38;;;;;;;42.55;19.60;;;-6.60;99.90;;;;;;5068821;28;20044;-37
2021/12/22 04:50:10;;;;;;;44.63;20.77;;;-6.50;99.90;;;;;;5068947;28;20044;-37
2021/12/22 04:52:44;;;;;;;39.53;19.58;;;-6.60;99.90;;;;;;5068993;28;20067;-37
2021/12/22 04:55:10;;;;;;;41.17;20.55;;;-6.50;99.90;;;;;;5068868;28;20105;-37
2021/12/22 04:57:36;;;;;;;35.80;19.60;;;-6.60;99.90;;;;;;5069330;28;20040;-37
2021/12/22 05:00:06;;;;;;;38.40;19.15;;;-6.60;99.90;;;;;;5068718;28;20036;-38
2021/12/22 05:02:31;;;;;;;39.70;18.58;;;-6.50;99.90;;;;;;5066850;28;20489;-37
2021/12/22 05:04:57;;;;;;;44.28;20.17;;;-6.50;99.90;;;;;;5068833;28;20047;-37
2021/12/22 05:07:23;;;;;;;36.80;18.90;;;-6.50;99.90;;;;;;5068758;28;20045;-37
2021/12/22 05:09:49;;;;;;;38.10;19.23;;;-6.50;99.90;;;;;;5068515;28;20041;-37
2021/12/22 05:12:14;;;;;;;47.42;20.77;;;-6.50;99.90;;;;;;5068842;28;20047;-37
2021/12/22 05:14:44;;;;;;;35.42;19.38;;;-6.60;99.90;;;;;;5068681;28;20169;-37
2021/12/22 05:17:17;;;;;;;44.83;20.30;;;-6.60;99.90;;;;;;5069393;28;20500;-37
2021/12/22 05:19:43;;;;;;;42.13;20.02;;;-6.60;99.90;;;;;;5068708;28;20037;-37
2021/12/22 05:22:09;;;;;;;41.90;19.08;;;-6.60;99.90;;;;;;5068974;28;20055;-37
2021/12/22 05:24:35;;;;;;;38.92;19.85;;;-6.60;99.90;;;;;;5068537;28;20048;-37
2021/12/22 05:27:00;;;;;;;40.67;19.55;;;-6.70;99.90;;;;;;5069162;28;20042;-37
2021/12/22 05:29:26;;;;;;;41.88;19.60;;;-6.70;99.90;;;;;;5068834;28;20403;-37
2021/12/22 05:31:54;;;;;;;40.63;19.90;;;-6.70;99.90;;;;;;5071840;28;20486;-37
2021/12/22 05:34:20;;;;;;;39.55;18.83;;;-6.70;99.90;;;;;;5073242;28;20044;-37
2021/12/22 05:36:46;;;;;;;45.78;21.50;;;-6.70;99.90;;;;;;5072430;28;20391;-37
2021/12/22 05:39:12;;;;;;;44.47;18.58;;;-6.70;99.90;;;;;;5072639;28;20404;-37
2021/12/22 05:41:38;;;;;;;45.72;20.70;;;-6.60;99.90;;;;;;5072558;28;20055;-37
2021/12/22 05:44:04;;;;;;;39.28;19.33;;;-6.70;99.90;;;;;;5072439;28;20532;-37
2021/12/22 05:46:30;;;;;;;41.47;19.73;;;-6.60;99.90;;;;;;5072475;28;20482;-37
2021/12/22 05:49:01;;;;;;;40.78;19.52;;;-6.70;99.90;;;;;;5072765;28;20098;-37
2021/12/22 05:51:33;;;;;;;48.13;20.60;;;-6.70;99.90;;;;;;5072773;28;20433;-37
2021/12/22 05:53:59;;;;;;;44.45;19.67;;;-5.80;99.90;;;;;;5072690;28;20063;-37
2021/12/22 05:56:27;;;;;;;44.83;20.55;;;-6.70;99.90;;;;;;5070822;28;20048;-37
2021/12/22 05:58:52;;;;;;;40.88;20.40;;;-6.60;99.90;;;;;;5072239;28;20063;-37
2021/12/22 06:01:18;;;;;;;40.83;19.17;;;-6.70;99.90;;;;;;5070774;28;20040;-37
2021/12/22 06:03:44;;;;;;;40.13;19.83;;;-6.70;99.90;;;;;;5054512;28;20567;-37
2021/12/22 06:06:12;;;;;;;46.80;19.80;;;-6.60;99.90;;;;;;5072445;28;20134;-37
2021/12/22 06:08:38;;;;;;;41.55;18.23;;;-6.60;99.90;;;;;;5072009;28;20437;-37
2021/12/22 06:11:04;;;;;;;39.97;19.83;;;-6.60;99.90;;;;;;5071381;28;20044;-37
2021/12/22 06:13:30;;;;;;;45.47;20.08;;;-6.60;99.90;;;;;;5072533;28;20040;-37
2021/12/22 06:15:56;;;;;;;45.38;19.60;;;-6.60;99.90;;;;;;5070796;28;20125;-36
2021/12/22 06:18:21;;;;;;;48.97;20.65;;;-6.60;99.90;;;;;;5072669;28;20045;-37
2021/12/22 06:20:48;;;;;;;46.85;20.23;;;-6.60;99.90;;;;;;5071465;28;20059;-37
2021/12/22 06:23:14;;;;;;;41.72;18.98;;;-6.60;99.90;;;;;;5072036;28;20052;-37
2021/12/22 06:25:40;;;;;;;38.92;19.30;;;-6.60;99.90;;;;;;5070025;28;20040;-37
2021/12/22 06:28:06;;;;;;;43.22;19.10;;;-6.60;99.90;;;;;;5072174;28;20039;-37
2021/12/22 06:30:33;;;;;;;45.05;20.67;;;-6.60;99.90;;;;;;5070063;28;20162;-37
2021/12/22 06:32:59;;;;;;;42.35;19.92;;;-6.60;99.90;;;;;;5071817;28;20236;-37
2021/12/22 06:35:25;;;;;;;41.33;21.08;;;-6.60;99.90;;;;;;5071616;28;20044;-37
2021/12/22 06:37:52;;;;;;;42.20;20.42;;;-5.00;99.90;;;;;;5071419;28;20119;-37
2021/12/22 06:40:18;;;;;;;40.95;19.30;;;-6.70;99.90;;;;;;5072073;28;20139;-37
2021/12/22 06:42:44;;;;;;;43.42;20.50;;;-6.70;99.90;;;;;;5070678;28;20041;-37
2021/12/22 06:45:28;;;;;;;40.22;20.73;;;-6.70;99.90;;;;;;5071751;28;20443;-37
2021/12/22 06:47:54;;;;;;;33.78;18.35;;;-6.70;99.90;;;;;;5071114;28;20051;-37
2021/12/22 06:50:20;;;;;;;40.10;19.35;;;-6.70;99.90;;;;;;5071483;28;20030;-37
2021/12/22 06:52:46;;;;;;;44.38;20.70;;;-6.70;99.90;;;;;;5070961;28;20083;-37
2021/12/22 06:55:11;;;;;;;41.20;19.98;;;-6.70;99.90;;;;;;5071865;28;20040;-37
2021/12/22 06:57:37;;;;;;;43.78;21.45;;;-6.60;99.90;;;;;;5071936;28;20101;-37
2021/12/22 07:00:06;;;;;;;42.75;20.38;;;-6.60;99.90;;;;;;5070701;28;20044;-41
2021/12/22 07:02:36;;;;;;;49.22;21.50;;;-6.60;99.90;;;;;;5069604;28;20052;-37
2021/12/22 07:05:03;;;;;;;43.00;19.38;;;-6.60;99.90;;;;;;5070926;28;20049;-37
2021/12/22 07:07:29;;;;;;;42.25;20.20;;;-6.60;99.90;;;;;;5071128;28;20538;-37
2021/12/22 07:09:54;;;;;;;46.10;21.52;;;-6.60;99.90;;;;;;5071088;28;20119;-37
2021/12/22 07:12:20;;;;;;;44.35;22.60;;;-6.60;99.90;;;;;;5070786;28;20082;-37
2021/12/22 07:14:45;;;;;;;46.45;22.00;;;-6.60;99.90;;;;;;5070724;28;20044;-37
2021/12/22 07:17:11;;;;;;;46.90;21.08;;;-6.60;99.90;;;;;;5070800;28;20409;-37
2021/12/22 07:19:37;;;;;;;43.17;19.35;;;-6.60;99.90;;;;;;5071050;28;20044;-37
2021/12/22 07:22:03;;;;;;;47.05;21.13;;;-6.60;99.90;;;;;;5070273;28;20072;-37
2021/12/22 07:24:28;;;;;;;38.95;19.15;;;-6.60;99.90;;;;;;5070852;28;20106;-37
2021/12/22 07:26:54;;;;;;;42.30;19.50;;;-6.60;99.90;;;;;;5069094;28;20044;-37
2021/12/22 07:29:20;;;;;;;43.22;20.85;;;-6.60;99.90;;;;;;5070672;28;20379;-36
2021/12/22 07:31:52;;;;;;;44.63;20.15;;;-6.60;99.90;;;;;;5071064;28;20048;-36
2021/12/22 07:34:41;;;;;;;38.33;18.88;;;-6.60;99.90;;;;;;5070715;28;20044;-37
2021/12/22 07:37:22;;;;;;;44.47;19.20;;;-6.60;99.90;;;;;;5068446;28;20037;-37
2021/12/22 07:39:48;;;;;;;34.85;18.75;;;-6.60;99.90;;;;;;5069924;28;20044;-37
2021/12/22 07:42:14;;;;;;;41.08;19.85;;;-6.60;99.90;;;;;;5070052;28;20044;-37
2021/12/22 07:44:40;;;;;;;48.30;20.55;;;-6.60;99.90;;;;;;5069807;28;20040;-37
2021/12/22 07:47:06;;;;;;;36.45;19.42;;;-6.60;99.90;;;;;;5069638;28;20028;-37
2021/12/22 07:49:32;;;;;;;41.03;19.42;;;-6.60;99.90;;;;;;5070033;28;20583;-37
2021/12/22 07:51:57;;;;;;;39.03;18.02;;;-6.50;99.90;;;;;;5069449;28;20028;-36
2021/12/22 07:54:23;;;;;;;43.53;20.23;;;-6.50;99.90;;;;;;5069285;28;20044;-37
2021/12/22 07:56:49;;;;;;;41.92;19.48;;;-6.50;99.90;;;;;;5067082;28;20155;-36
2021/12/22 07:59:14;;;;;;;36.97;18.52;;;-6.40;99.90;;;;;;5069654;28;20388;-37
2021/12/22 08:01:40;;;;;;;38.60;18.70;;;-6.40;99.90;;;;;;5069421;28;20052;-37
2021/12/22 08:04:06;;;;;;;40.35;19.75;;;-6.40;99.90;;;;;;5069570;28;20044;-37
2021/12/22 08:06:32;;;;;;;38.95;18.83;;;-6.30;99.90;;;;;;5068009;28;20114;-37
2021/12/22 08:09:03;;;;;;;43.80;21.02;;;-6.30;99.90;;;;;;5069927;28;20131;-37
2021/12/22 08:11:29;;;;;;;47.30;20.63;;;-6.30;99.90;;;;;;5066651;28;20105;-37
2021/12/22 08:13:55;;;;;;;41.03;17.88;;;-6.30;99.90;;;;;;5068993;28;20028;-37
2021/12/22 08:16:21;;;;;;;43.70;20.40;;;-6.30;99.90;;;;;;5069194;28;20040;-37
2021/12/22 08:18:47;;;;;;;38.70;20.10;;;-6.20;99.90;;;;;;5068908;28;20127;-37
2021/12/22 08:21:12;;;;;;;46.28;21.20;;;-6.10;99.90;;;;;;5069375;28;20082;-37
2021/12/22 08:23:39;;;;;;;40.70;21.48;;;-6.00;99.90;;;;;;5069342;28;20094;-37
2021/12/22 08:26:04;;;;;;;45.63;20.33;;;-6.00;99.90;;;;;;5069107;28;20036;-36
2021/12/22 08:28:30;;;;;;;41.05;20.10;;;-5.90;99.90;;;;;;5068853;28;20121;-37
2021/12/22 08:30:56;;;;;;;42.72;20.35;;;-5.80;99.90;;;;;;5068236;28;20513;-37
2021/12/22 08:33:25;;;;;;;42.97;19.20;;;-5.70;99.90;;;;;;5069314;28;20051;-36
2021/12/22 08:38:52;;;;;;;40.28;19.05;;;-5.20;99.90;;;;;;5052499;28;20052;-37
2021/12/22 08:41:20;;;;;;;51.08;22.42;;;-5.60;99.90;;;;;;5068819;28;20039;-37
2021/12/22 08:43:46;;;;;;;42.97;20.60;;;-5.50;99.90;;;;;;5064389;28;20581;-37
2021/12/22 08:46:11;;;;;;;48.78;19.95;;;-5.40;99.90;;;;;;5068617;28;20079;-36
2021/12/22 08:48:37;;;;;;;43.20;20.77;;;-5.40;99.90;;;;;;5067101;28;20147;-37
2021/12/22 08:51:03;;;;;;;47.38;22.20;;;-5.30;99.90;;;;;;5068778;28;20067;-37
2021/12/22 08:53:29;;;;;;;48.22;22.38;;;-5.30;99.90;;;;;;5068446;28;20047;-36
2021/12/22 08:55:54;;;;;;;43.97;20.60;;;-5.20;99.90;;;;;;5068453;28;20037;-36
2021/12/22 08:58:20;;;;;;;45.00;20.98;;;-5.10;99.90;;;;;;5068851;28;20534;-40
2021/12/22 09:00:46;;;;;;;46.00;21.60;;;-5.00;99.90;;;;;;5068918;28;20538;-36
2021/12/22 09:03:11;;;;;;;44.78;22.23;;;-4.90;99.90;;;;;;5068323;28;20071;-37
2021/12/22 09:05:37;;;;;;;46.53;22.42;;;-4.90;99.90;;;;;;5066782;28;20048;-37
2021/12/22 09:08:03;;;;;;;47.03;22.13;;;-4.80;99.90;;;;;;5067908;28;20032;-37
2021/12/22 09:10:29;;;;;;;47.55;22.67;;;-4.70;99.90;;;;;;5068046;28;20045;-36
2021/12/22 09:12:55;;;;;;;45.25;21.42;;;-4.40;99.90;;;;;;5068191;28;20039;-37
2021/12/22 09:15:21;;;;;;;51.95;23.63;;;-4.60;99.90;;;;;;5068224;28;20040;-37
2021/12/22 09:17:46;;;;;;;49.55;23.20;;;-4.50;99.90;;;;;;5068197;28;20037;-37
2021/12/22 09:20:13;;;;;;;52.30;23.65;;;-4.40;99.90;;;;;;5068342;28;20044;-36
2021/12/22 09:22:38;;;;;;;50.47;25.17;;;-4.40;99.90;;;;;;5068119;28;20044;-36
2021/12/22 09:25:05;;;;;;;47.17;23.25;;;-4.30;99.90;;;;;;5068587;28;20051;-37
2021/12/22 09:27:31;;;;;;;52.17;23.70;;;-4.20;99.90;;;;;;5068310;28;20033;-37
2021/12/22 09:29:56;;;;;;;50.40;25.40;;;-4.20;99.90;;;;;;5067967;28;20498;-37
2021/12/22 09:32:22;;;;;;;60.08;24.95;;;-4.10;99.90;;;;;;5067785;28;20372;-37
2021/12/22 09:34:52;;;;;;;47.83;23.15;;;-4.10;99.90;;;;;;5068292;28;20070;-37
2021/12/22 09:37:18;;;;;;;50.80;23.42;;;-4.10;99.90;;;;;;5063451;28;20041;-37
2021/12/22 09:39:44;;;;;;;51.50;26.75;;;-4.00;99.90;;;;;;5067986;28;20134;-37
2021/12/22 09:42:11;;;;;;;50.22;25.20;;;-3.90;99.90;;;;;;5068197;28;20509;-36
2021/12/22 09:44:44;;;;;;;52.90;25.92;;;-3.90;99.90;;;;;;5068373;28;20120;-37
2021/12/22 09:47:11;;;;;;;50.88;24.70;;;-3.80;99.90;;;;;;5065606;28;20041;-37
2021/12/22 09:49:58;;;;;;;56.22;27.02;;;-3.80;99.90;;;;;;5068097;28;20037;-37
2021/12/22 09:52:23;;;;;;;53.17;25.55;;;-3.60;99.90;;;;;;5068235;28;20045;-36
2021/12/22 09:54:51;;;;;;;55.10;27.50;;;-3.60;99.90;;;;;;5068320;28;20127;-36
2021/12/22 09:57:19;;;;;;;60.20;27.08;;;-3.50;99.90;;;;;;5067868;28;20040;-37
2021/12/22 09:59:46;;;;;;;57.85;27.83;;;-3.40;99.90;;;;;;5068268;28;20048;-37
2021/12/22 10:02:16;;;;;;;59.75;28.17;;;-3.30;99.90;;;;;;5068289;28;20098;-37
2021/12/22 10:04:42;;;;;;;57.20;27.63;;;-3.30;99.90;;;;;;5064906;28;20048;-37
2021/12/22 10:07:10;;;;;;;57.55;28.00;;;-3.20;99.90;;;;;;5068429;28;20040;-37
2021/12/22 10:09:45;;;;;;;60.75;27.92;;;-2.70;99.90;;;;;;5068348;28;20054;-37
2021/12/22 10:12:25;;;;;;;58.38;28.00;;;-3.10;99.90;;;;;;5068441;28;20109;-37
2021/12/22 10:15:00;;;;;;;57.58;28.92;;;-3.00;99.90;;;;;;5067989;28;20051;-37
2021/12/22 10:17:44;;;;;;;56.83;28.52;;;-3.00;99.90;;;;;;5044029;28;20167;-37
2021/12/22 10:20:15;;;;;;;55.85;25.95;;;-3.00;99.90;;;;;;5069053;28;20028;-44
2021/12/22 10:22:44;;;;;;;52.92;27.30;;;-2.90;99.90;;;;;;5073472;28;20036;-42
2021/12/22 10:25:22;;;;;;;56.67;27.55;;;-2.90;99.90;;;;;;5075405;28;20544;-42
2021/12/22 10:28:07;;;;;;;50.20;26.83;;;-2.80;99.90;;;;;;5075913;28;20401;-39
2021/12/22 10:30:40;;;;;;;55.00;25.88;;;-2.70;99.90;;;;;;5076089;28;20135;-45
2021/12/22 10:33:27;;;;;;;54.17;28.38;;;-2.60;99.90;;;;;;5076559;28;20043;-50
2021/12/22 10:36:00;;;;;;;60.80;29.08;;;-2.60;99.90;;;;;;5076171;28;20416;-46
2021/12/22 10:38:27;;;;;;;;;;;-2.50;99.90;;;;;;5078021;28;20044;-47
2021/12/22 10:40:56;;;;;;;55.20;27.15;;;-2.50;99.90;;;;;;5078900;28;19995;-39
2021/12/22 10:43:31;;;;;;;54.90;25.92;;;-2.40;99.90;;;;;;5075334;28;20029;-41
2021/12/22 10:46:05;;;;;;;53.08;27.45;;;-2.40;99.90;;;;;;5073272;28;20059;-42
2021/12/22 10:51:27;;;;;;;53.80;28.20;;;-2.30;99.90;;;;;;5076275;28;20036;-48
2021/12/22 10:53:53;;;;;;;58.67;29.38;;;-2.30;99.90;;;;;;5073446;28;20040;-46
2021/12/22 10:56:29;;;;;;;58.83;29.25;;;-2.20;99.90;;;;;;5074751;28;20041;-43
2021/12/22 10:59:08;;;;;;;54.53;29.20;;;-2.10;99.90;;;;;;5076140;28;20050;-42
2021/12/22 11:01:37;;;;;;;68.53;29.75;;;-2.10;99.90;;;;;;5077479;28;20123;-40
2021/12/22 11:04:13;;;;;;;64.32;29.40;;;-2.10;99.90;;;;;;5074300;28;20694;-49
2021/12/22 11:06:40;;;;;;;51.10;26.38;;;-2.00;99.90;;;;;;5079539;28;20060;-41
2021/12/22 11:09:10;;;;;;;61.45;29.45;;;-2.00;99.90;;;;;;5078849;28;20381;-41
2021/12/22 11:11:42;;;;;;;61.85;28.00;;;-2.00;99.90;;;;;;5076170;28;20367;-50
2021/12/22 11:14:12;;;;;;;58.83;27.17;;;-2.00;99.90;;;;;;5072004;28;20028;-42
2021/12/22 11:17:09;;;;;;;54.42;26.45;;;-2.00;99.90;;;;;;5070950;28;20045;-41
2021/12/22 11:19:48;;;;;;;67.22;28.00;;;-2.00;99.90;;;;;;5070216;28;20082;-45
2021/12/22 11:22:15;;;;;;;60.97;27.17;;;-2.00;99.90;;;;;;5076891;28;20036;-47
2021/12/22 11:24:47;;;;;;;62.65;28.30;;;-2.00;99.90;;;;;;5078093;28;20086;-45
2021/12/22 11:27:16;;;;;;;58.47;27.17;;;-2.00;99.90;;;;;;5072832;28;20103;-44
2021/12/22 11:29:45;;;;;;;59.50;27.27;;;-0.90;99.90;;;;;;5071558;28;20059;-45
2021/12/22 11:32:13;;;;;;;65.65;29.95;;;-1.90;99.90;;;;;;5075908;28;20051;-43
2021/12/22 11:34:42;;;;;;;57.75;27.00;;;-1.90;99.90;;;;;;5072548;28;20520;-44
2021/12/22 11:37:11;;;;;;;62.15;27.05;;;-1.90;99.90;;;;;;5075076;28;20082;-45
2021/12/22 11:39:37;;;;;;;66.00;26.95;;;-1.90;99.90;;;;;;5078364;28;20059;-44
2021/12/22 11:42:07;;;;;;;72.47;29.95;;;-1.80;99.90;;;;;;5074024;28;20492;-49
2021/12/22 11:44:34;;;;;;;62.13;28.65;;;-1.80;99.90;;;;;;5073200;28;20047;-47
2021/12/22 11:47:04;;;;;;;60.55;27.75;;;-1.60;99.90;;;;;;5073633;28;20839;-45
2021/12/22 11:49:34;;;;;;;63.75;28.48;;;-1.80;99.90;;;;;;5077634;28;20036;-44
2021/12/22 11:52:02;;;;;;;56.65;27.98;;;-1.80;99.90;;;;;;5076144;28;20033;-39
2021/12/22 11:54:28;;;;;;;60.92;27.75;;;-1.80;99.90;;;;;;5074421;28;20195;-42
2021/12/22 11:56:56;;;;;;;74.18;29.52;;;-1.80;99.90;;;;;;5073080;28;20094;-39
2021/12/22 11:59:39;;;;;;;60.30;27.05;;;-1.80;99.90;;;;;;5074680;28;20020;-42
2021/12/22 12:02:32;;;;;;;62.05;25.95;;;-1.70;99.90;;;;;;5075458;28;20083;-45
2021/12/22 12:05:20;;;;;;;;;;;-1.70;99.90;;;;;;5075414;28;20115;-49
2021/12/22 12:08:01;;;;;;;68.97;28.50;;;-1.70;99.90;;;;;;5069434;28;19931;-59
2021/12/22 12:10:39;;;;;;;61.70;26.52;;;-1.70;99.90;;;;;;5074858;28;20030;-58
2021/12/22 12:22:10;;;;;;;53.45;25.55;;;-1.70;99.90;;;;;;5070832;28;20040;-41
2021/12/22 12:24:39;;;;;;;52.92;24.23;;;-1.70;99.90;;;;;;5071919;28;20081;-42
2021/12/22 12:27:40;;;;;;;61.03;25.75;;;-0.40;99.90;;;;;;5074508;28;20457;-42
2021/12/22 12:30:22;;;;;;;55.40;24.27;;;-1.70;99.90;;;;;;5071435;28;20090;-45
2021/12/22 12:32:49;;;;;;;54.60;25.45;;;-1.70;99.90;;;;;;5077827;28;20392;-42
2021/12/22 12:35:23;;;;;;;49.17;23.85;;;-1.70;99.90;;;;;;5072758;28;20105;-42
2021/12/22 12:38:14;;;;;;;59.05;24.55;;;-1.70;99.90;;;;;;5073000;28;20044;-41
2021/12/22 12:40:58;;;;;;;49.95;24.83;;;-1.70;99.90;;;;;;5074858;28;20032;-40
2021/12/22 12:46:20;;;;;;;54.85;24.15;;;-1.70;99.90;;;;;;5073571;28;20072;-39
2021/12/22 12:49:04;;;;;;;51.22;22.75;;;-1.70;99.90;;;;;;5073707;28;20397;-43
2021/12/22 12:51:35;;;;;;;43.45;22.35;;;-1.70;99.90;;;;;;5076049;28;20478;-50
2021/12/22 12:54:05;;;;;;;49.30;23.83;;;-1.60;99.90;;;;;;5069950;28;20029;-48
2021/12/22 12:56:38;;;;;;;51.90;22.95;;;-1.60;99.90;;;;;;5073374;28;20047;-46
2021/12/22 12:59:08;;;;;;;47.60;22.77;;;-1.60;99.90;;;;;;5073420;28;20047;-41
2021/12/22 13:01:52;;;;;;;52.70;23.40;;;-1.60;99.90;;;;;;5073086;28;20477;-43
2021/12/22 13:04:40;;;;;;;41.38;21.05;;;-1.60;99.90;;;;;;5070962;28;20133;-45